sensor_id;sensor_type;location;lat;lon;timestamp;P1;durP1;ratioP1;P2;durP2;ratioP2
73697;SDS011;62004;42.566;23.164;2023-03-31T00:01:31;867.80;;;813.58;;
73697;SDS011;62004;42.566;23.164;2023-03-31T00:04:01;829.28;;;777.80;;
73697;SDS011;62004;42.566;23.164;2023-03-31T00:06:28;868.97;;;814.60;;
73697;SDS011;62004;42.566;23.164;2023-03-31T00:08:53;862.35;;;809.00;;
73697;SDS011;62004;42.566;23.164;2023-03-31T00:11:21;874.17;;;819.13;;
73697;SDS011;62004;42.566;23.164;2023-03-31T00:13:47;865.10;;;811.40;;
73697;SDS011;62004;42.566;23.164;2023-03-31T00:16:12;866.38;;;812.50;;
73697;SDS011;62004;42.566;23.164;2023-03-31T00:18:38;859.38;;;805.75;;
73697;SDS011;62004;42.566;23.164;2023-03-31T00:21:12;880.97;;;826.33;;
73697;SDS011;62004;42.566;23.164;2023-03-31T00:23:38;866.85;;;812.13;;
73697;SDS011;62004;42.566;23.164;2023-03-31T00:26:03;872.97;;;817.70;;
73697;SDS011;62004;42.566;23.164;2023-03-31T00:28:29;874.70;;;820.07;;
73697;SDS011;62004;42.566;23.164;2023-03-31T00:30:58;856.17;;;803.73;;
73697;SDS011;62004;42.566;23.164;2023-03-31T00:33:23;843.63;;;790.63;;
73697;SDS011;62004;42.566;23.164;2023-03-31T00:35:51;838.87;;;786.57;;
73697;SDS011;62004;42.566;23.164;2023-03-31T00:38:17;858.10;;;803.17;;
73697;SDS011;62004;42.566;23.164;2023-03-31T00:40:45;840.92;;;788.50;;
73697;SDS011;62004;42.566;23.164;2023-03-31T00:43:31;856.13;;;801.42;;
73697;SDS011;62004;42.566;23.164;2023-03-31T00:48:31;871.70;;;818.17;;
73697;SDS011;62004;42.566;23.164;2023-03-31T00:50:57;871.00;;;816.65;;
73697;SDS011;62004;42.566;23.164;2023-03-31T00:53:24;878.90;;;823.97;;
73697;SDS011;62004;42.566;23.164;2023-03-31T00:55:52;881.13;;;825.88;;
73697;SDS011;62004;42.566;23.164;2023-03-31T00:58:18;861.22;;;807.55;;
73697;SDS011;62004;42.566;23.164;2023-03-31T01:00:45;863.03;;;809.67;;
73697;SDS011;62004;42.566;23.164;2023-03-31T01:03:11;864.10;;;808.92;;
73697;SDS011;62004;42.566;23.164;2023-03-31T01:05:39;867.57;;;812.53;;
73697;SDS011;62004;42.566;23.164;2023-03-31T01:08:05;856.35;;;803.30;;
73697;SDS011;62004;42.566;23.164;2023-03-31T01:10:32;867.20;;;812.28;;
73697;SDS011;62004;42.566;23.164;2023-03-31T01:13:02;876.63;;;821.35;;
73697;SDS011;62004;42.566;23.164;2023-03-31T01:15:28;866.05;;;810.55;;
73697;SDS011;62004;42.566;23.164;2023-03-31T01:17:53;853.00;;;797.57;;
73697;SDS011;62004;42.566;23.164;2023-03-31T01:27:45;827.60;;;774.40;;
73697;SDS011;62004;42.566;23.164;2023-03-31T01:33:08;823.40;;;768.40;;
73697;SDS011;62004;42.566;23.164;2023-03-31T01:45:39;821.85;;;766.13;;
73697;SDS011;62004;42.566;23.164;2023-03-31T01:50:38;818.70;;;762.40;;
73697;SDS011;62004;42.566;23.164;2023-03-31T01:53:50;828.35;;;772.30;;
73697;SDS011;62004;42.566;23.164;2023-03-31T01:58:22;802.87;;;746.53;;
73697;SDS011;62004;42.566;23.164;2023-03-31T02:01:04;806.92;;;753.95;;
73697;SDS011;62004;42.566;23.164;2023-03-31T02:03:31;775.80;;;723.35;;
73697;SDS011;62004;42.566;23.164;2023-03-31T02:05:59;782.00;;;729.13;;
73697;SDS011;62004;42.566;23.164;2023-03-31T02:08:28;786.20;;;732.90;;
73697;SDS011;62004;42.566;23.164;2023-03-31T02:10:55;777.95;;;722.50;;
73697;SDS011;62004;42.566;23.164;2023-03-31T02:13:21;786.47;;;730.20;;
73697;SDS011;62004;42.566;23.164;2023-03-31T02:15:49;767.10;;;711.22;;
73697;SDS011;62004;42.566;23.164;2023-03-31T02:18:16;756.40;;;702.38;;
73697;SDS011;62004;42.566;23.164;2023-03-31T02:20:42;737.50;;;684.28;;
73697;SDS011;62004;42.566;23.164;2023-03-31T02:23:11;761.33;;;707.80;;
73697;SDS011;62004;42.566;23.164;2023-03-31T02:25:40;759.95;;;706.70;;
73697;SDS011;62004;42.566;23.164;2023-03-31T02:28:07;768.45;;;713.65;;
73697;SDS011;62004;42.566;23.164;2023-03-31T02:30:39;733.10;;;679.63;;
73697;SDS011;62004;42.566;23.164;2023-03-31T02:33:07;754.30;;;698.70;;
73697;SDS011;62004;42.566;23.164;2023-03-31T02:35:32;783.83;;;731.13;;
73697;SDS011;62004;42.566;23.164;2023-03-31T02:37:59;798.13;;;743.40;;
73697;SDS011;62004;42.566;23.164;2023-03-31T02:40:24;763.63;;;710.40;;
73697;SDS011;62004;42.566;23.164;2023-03-31T02:42:51;744.08;;;691.22;;
73697;SDS011;62004;42.566;23.164;2023-03-31T02:48:01;715.25;;;662.53;;
73697;SDS011;62004;42.566;23.164;2023-03-31T02:50:27;713.50;;;656.08;;
73697;SDS011;62004;42.566;23.164;2023-03-31T02:53:17;692.83;;;637.35;;
73697;SDS011;62004;42.566;23.164;2023-03-31T02:56:05;674.58;;;617.97;;
73697;SDS011;62004;42.566;23.164;2023-03-31T02:58:36;630.10;;;575.15;;
73697;SDS011;62004;42.566;23.164;2023-03-31T03:14:43;629.42;;;571.75;;
73697;SDS011;62004;42.566;23.164;2023-03-31T03:16:52;681.20;;;623.80;;
73697;SDS011;62004;42.566;23.164;2023-03-31T03:19:21;648.42;;;594.25;;
73697;SDS011;62004;42.566;23.164;2023-03-31T03:21:46;666.22;;;614.72;;
73697;SDS011;62004;42.566;23.164;2023-03-31T03:24:15;658.03;;;604.78;;
73697;SDS011;62004;42.566;23.164;2023-03-31T03:26:42;700.22;;;646.35;;
73697;SDS011;62004;42.566;23.164;2023-03-31T03:29:08;701.65;;;650.72;;
73697;SDS011;62004;42.566;23.164;2023-03-31T03:31:34;719.77;;;665.83;;
73697;SDS011;62004;42.566;23.164;2023-03-31T03:33:59;707.83;;;656.80;;
73697;SDS011;62004;42.566;23.164;2023-03-31T03:36:24;687.95;;;635.67;;
73697;SDS011;62004;42.566;23.164;2023-03-31T03:38:50;676.42;;;621.97;;
73697;SDS011;62004;42.566;23.164;2023-03-31T03:41:15;682.50;;;631.10;;
73697;SDS011;62004;42.566;23.164;2023-03-31T03:43:41;708.80;;;655.85;;
73697;SDS011;62004;42.566;23.164;2023-03-31T03:46:06;710.50;;;659.47;;
73697;SDS011;62004;42.566;23.164;2023-03-31T03:48:31;720.23;;;668.23;;
73697;SDS011;62004;42.566;23.164;2023-03-31T03:50:58;724.70;;;670.73;;
73697;SDS011;62004;42.566;23.164;2023-03-31T03:53:23;738.00;;;682.35;;
73697;SDS011;62004;42.566;23.164;2023-03-31T03:55:49;716.67;;;662.37;;
73697;SDS011;62004;42.566;23.164;2023-03-31T03:58:14;741.87;;;689.07;;
73697;SDS011;62004;42.566;23.164;2023-03-31T04:00:40;758.38;;;706.78;;
73697;SDS011;62004;42.566;23.164;2023-03-31T04:03:05;747.27;;;695.63;;
73697;SDS011;62004;42.566;23.164;2023-03-31T04:05:30;754.97;;;702.73;;
73697;SDS011;62004;42.566;23.164;2023-03-31T04:07:55;762.03;;;710.90;;
73697;SDS011;62004;42.566;23.164;2023-03-31T04:10:21;794.67;;;740.93;;
73697;SDS011;62004;42.566;23.164;2023-03-31T04:12:46;781.23;;;727.83;;
73697;SDS011;62004;42.566;23.164;2023-03-31T04:15:11;775.80;;;724.90;;
73697;SDS011;62004;42.566;23.164;2023-03-31T04:17:38;757.85;;;706.28;;
73697;SDS011;62004;42.566;23.164;2023-03-31T04:20:04;754.97;;;700.67;;
73697;SDS011;62004;42.566;23.164;2023-03-31T04:22:31;728.83;;;674.63;;
73697;SDS011;62004;42.566;23.164;2023-03-31T04:25:04;733.95;;;679.00;;
73697;SDS011;62004;42.566;23.164;2023-03-31T04:27:39;724.03;;;670.15;;
73697;SDS011;62004;42.566;23.164;2023-03-31T04:30:13;713.88;;;658.90;;
73697;SDS011;62004;42.566;23.164;2023-03-31T04:32:46;690.15;;;634.33;;
73697;SDS011;62004;42.566;23.164;2023-03-31T04:35:14;688.10;;;632.60;;
73697;SDS011;62004;42.566;23.164;2023-03-31T04:37:41;672.35;;;619.03;;
73697;SDS011;62004;42.566;23.164;2023-03-31T04:40:07;643.90;;;590.65;;
73697;SDS011;62004;42.566;23.164;2023-03-31T04:42:33;645.33;;;587.95;;
73697;SDS011;62004;42.566;23.164;2023-03-31T04:44:58;659.23;;;602.30;;
73697;SDS011;62004;42.566;23.164;2023-03-31T04:47:23;633.30;;;577.83;;
73697;SDS011;62004;42.566;23.164;2023-03-31T04:49:49;619.43;;;565.33;;
73697;SDS011;62004;42.566;23.164;2023-03-31T04:52:14;624.43;;;567.97;;
73697;SDS011;62004;42.566;23.164;2023-03-31T04:54:39;653.92;;;596.03;;
73697;SDS011;62004;42.566;23.164;2023-03-31T04:57:04;647.60;;;594.23;;
73697;SDS011;62004;42.566;23.164;2023-03-31T04:59:30;652.47;;;595.45;;
73697;SDS011;62004;42.566;23.164;2023-03-31T05:01:55;634.87;;;574.80;;
73697;SDS011;62004;42.566;23.164;2023-03-31T05:04:20;627.80;;;574.03;;
73697;SDS011;62004;42.566;23.164;2023-03-31T05:06:46;618.00;;;561.50;;
73697;SDS011;62004;42.566;23.164;2023-03-31T05:09:11;569.73;;;513.73;;
73697;SDS011;62004;42.566;23.164;2023-03-31T05:11:36;632.53;;;572.67;;
73697;SDS011;62004;42.566;23.164;2023-03-31T05:14:02;647.85;;;589.08;;
73697;SDS011;62004;42.566;23.164;2023-03-31T05:16:27;666.63;;;609.00;;
73697;SDS011;62004;42.566;23.164;2023-03-31T05:18:53;665.73;;;613.17;;
73697;SDS011;62004;42.566;23.164;2023-03-31T05:21:19;692.75;;;636.88;;
73697;SDS011;62004;42.566;23.164;2023-03-31T05:23:44;695.50;;;642.67;;
73697;SDS011;62004;42.566;23.164;2023-03-31T05:26:10;724.92;;;672.47;;
73697;SDS011;62004;42.566;23.164;2023-03-31T05:28:36;795.50;;;740.85;;
73697;SDS011;62004;42.566;23.164;2023-03-31T05:31:02;793.97;;;739.63;;
73697;SDS011;62004;42.566;23.164;2023-03-31T05:33:27;794.28;;;739.25;;
73697;SDS011;62004;42.566;23.164;2023-03-31T05:35:53;771.17;;;718.05;;
73697;SDS011;62004;42.566;23.164;2023-03-31T05:38:18;847.80;;;794.05;;
73697;SDS011;62004;42.566;23.164;2023-03-31T05:40:45;854.72;;;801.47;;
73697;SDS011;62004;42.566;23.164;2023-03-31T05:43:10;842.15;;;789.28;;
73697;SDS011;62004;42.566;23.164;2023-03-31T05:45:36;836.73;;;782.07;;
73697;SDS011;62004;42.566;23.164;2023-03-31T05:48:01;841.33;;;788.23;;
73697;SDS011;62004;42.566;23.164;2023-03-31T05:50:27;879.88;;;825.45;;
73697;SDS011;62004;42.566;23.164;2023-03-31T05:52:52;871.50;;;816.80;;
73697;SDS011;62004;42.566;23.164;2023-03-31T05:55:17;857.33;;;801.73;;
73697;SDS011;62004;42.566;23.164;2023-03-31T05:57:42;864.08;;;808.40;;
73697;SDS011;62004;42.566;23.164;2023-03-31T06:00:08;857.03;;;802.73;;
73697;SDS011;62004;42.566;23.164;2023-03-31T06:02:35;868.90;;;813.20;;
73697;SDS011;62004;42.566;23.164;2023-03-31T06:05:00;824.90;;;770.97;;
73697;SDS011;62004;42.566;23.164;2023-03-31T06:07:25;813.63;;;760.00;;
73697;SDS011;62004;42.566;23.164;2023-03-31T06:09:51;839.53;;;783.47;;
73697;SDS011;62004;42.566;23.164;2023-03-31T06:12:16;819.97;;;764.33;;
73697;SDS011;62004;42.566;23.164;2023-03-31T06:14:41;843.13;;;787.27;;
73697;SDS011;62004;42.566;23.164;2023-03-31T06:17:07;791.80;;;735.83;;
73697;SDS011;62004;42.566;23.164;2023-03-31T06:19:32;815.30;;;762.27;;
73697;SDS011;62004;42.566;23.164;2023-03-31T06:21:57;804.90;;;752.10;;
73697;SDS011;62004;42.566;23.164;2023-03-31T06:24:22;804.17;;;748.90;;
73697;SDS011;62004;42.566;23.164;2023-03-31T06:26:48;806.50;;;753.73;;
73697;SDS011;62004;42.566;23.164;2023-03-31T06:29:13;809.00;;;753.50;;
73697;SDS011;62004;42.566;23.164;2023-03-31T06:31:38;785.40;;;731.57;;
73697;SDS011;62004;42.566;23.164;2023-03-31T06:34:03;805.70;;;752.27;;
73697;SDS011;62004;42.566;23.164;2023-03-31T06:36:29;836.57;;;781.20;;
73697;SDS011;62004;42.566;23.164;2023-03-31T06:38:54;836.77;;;781.63;;
73697;SDS011;62004;42.566;23.164;2023-03-31T06:41:19;835.20;;;780.40;;
73697;SDS011;62004;42.566;23.164;2023-03-31T06:43:46;852.90;;;797.92;;
73697;SDS011;62004;42.566;23.164;2023-03-31T06:46:13;825.17;;;769.25;;
73697;SDS011;62004;42.566;23.164;2023-03-31T06:48:38;831.85;;;778.13;;
73697;SDS011;62004;42.566;23.164;2023-03-31T06:51:04;815.00;;;762.47;;
73697;SDS011;62004;42.566;23.164;2023-03-31T06:53:30;816.08;;;762.38;;
73697;SDS011;62004;42.566;23.164;2023-03-31T06:55:55;833.70;;;778.47;;
73697;SDS011;62004;42.566;23.164;2023-03-31T06:58:21;820.03;;;767.00;;
73697;SDS011;62004;42.566;23.164;2023-03-31T07:00:47;807.90;;;755.03;;
73697;SDS011;62004;42.566;23.164;2023-03-31T07:03:12;828.53;;;775.70;;
73697;SDS011;62004;42.566;23.164;2023-03-31T07:05:38;835.88;;;780.55;;
73697;SDS011;62004;42.566;23.164;2023-03-31T07:08:03;878.17;;;821.90;;
73697;SDS011;62004;42.566;23.164;2023-03-31T07:10:30;859.35;;;802.30;;
73697;SDS011;62004;42.566;23.164;2023-03-31T07:12:55;883.60;;;825.53;;
73697;SDS011;62004;42.566;23.164;2023-03-31T07:15:21;865.13;;;808.00;;
73697;SDS011;62004;42.566;23.164;2023-03-31T07:17:46;878.88;;;821.05;;
73697;SDS011;62004;42.566;23.164;2023-03-31T07:20:14;886.70;;;827.97;;
73697;SDS011;62004;42.566;23.164;2023-03-31T07:22:40;906.00;;;845.60;;
73697;SDS011;62004;42.566;23.164;2023-03-31T07:25:06;909.63;;;849.30;;
73697;SDS011;62004;42.566;23.164;2023-03-31T07:27:31;932.47;;;868.08;;
73697;SDS011;62004;42.566;23.164;2023-03-31T07:29:57;922.07;;;858.87;;
73697;SDS011;62004;42.566;23.164;2023-03-31T07:32:22;931.40;;;864.67;;
73697;SDS011;62004;42.566;23.164;2023-03-31T07:34:47;942.97;;;871.43;;
73697;SDS011;62004;42.566;23.164;2023-03-31T07:37:13;942.67;;;870.00;;
73697;SDS011;62004;42.566;23.164;2023-03-31T07:39:38;944.87;;;871.60;;
73697;SDS011;62004;42.566;23.164;2023-03-31T07:42:03;942.17;;;869.57;;
73697;SDS011;62004;42.566;23.164;2023-03-31T07:44:28;939.13;;;866.50;;
73697;SDS011;62004;42.566;23.164;2023-03-31T07:46:54;935.13;;;865.40;;
73697;SDS011;62004;42.566;23.164;2023-03-31T07:49:19;940.83;;;868.70;;
73697;SDS011;62004;42.566;23.164;2023-03-31T07:51:45;958.17;;;879.50;;
73697;SDS011;62004;42.566;23.164;2023-03-31T07:54:10;941.37;;;865.07;;
73697;SDS011;62004;42.566;23.164;2023-03-31T07:56:35;948.63;;;870.40;;
73697;SDS011;62004;42.566;23.164;2023-03-31T07:59:00;939.47;;;861.55;;
73697;SDS011;62004;42.566;23.164;2023-03-31T08:01:26;945.15;;;868.25;;
73697;SDS011;62004;42.566;23.164;2023-03-31T08:03:53;948.95;;;871.65;;
73697;SDS011;62004;42.566;23.164;2023-03-31T08:06:20;940.47;;;862.53;;
73697;SDS011;62004;42.566;23.164;2023-03-31T08:08:46;948.30;;;867.63;;
73697;SDS011;62004;42.566;23.164;2023-03-31T08:11:11;946.60;;;867.58;;
73697;SDS011;62004;42.566;23.164;2023-03-31T08:13:38;954.42;;;874.88;;
73697;SDS011;62004;42.566;23.164;2023-03-31T08:16:03;969.63;;;888.40;;
73697;SDS011;62004;42.566;23.164;2023-03-31T08:18:28;947.78;;;869.58;;
73697;SDS011;62004;42.566;23.164;2023-03-31T08:20:53;951.13;;;871.50;;
73697;SDS011;62004;42.566;23.164;2023-03-31T08:23:19;938.50;;;857.70;;
73697;SDS011;62004;42.566;23.164;2023-03-31T08:25:44;953.87;;;874.07;;
73697;SDS011;62004;42.566;23.164;2023-03-31T08:28:09;931.03;;;853.53;;
73697;SDS011;62004;42.566;23.164;2023-03-31T08:30:38;956.10;;;876.13;;
73697;SDS011;62004;42.566;23.164;2023-03-31T08:33:03;937.30;;;857.78;;
73697;SDS011;62004;42.566;23.164;2023-03-31T08:35:28;942.07;;;865.27;;
73697;SDS011;62004;42.566;23.164;2023-03-31T08:37:54;947.27;;;868.63;;
73697;SDS011;62004;42.566;23.164;2023-03-31T08:40:21;945.03;;;865.45;;
73697;SDS011;62004;42.566;23.164;2023-03-31T08:42:49;945.38;;;866.10;;
73697;SDS011;62004;42.566;23.164;2023-03-31T08:45:20;955.05;;;873.28;;
73697;SDS011;62004;42.566;23.164;2023-03-31T08:47:46;956.33;;;874.75;;
73697;SDS011;62004;42.566;23.164;2023-03-31T08:50:13;948.10;;;867.67;;
73697;SDS011;62004;42.566;23.164;2023-03-31T08:52:41;959.03;;;877.17;;
73697;SDS011;62004;42.566;23.164;2023-03-31T08:55:12;962.85;;;879.55;;
73697;SDS011;62004;42.566;23.164;2023-03-31T09:00:25;948.97;;;867.05;;
73697;SDS011;62004;42.566;23.164;2023-03-31T09:03:10;965.70;;;884.58;;
73697;SDS011;62004;42.566;23.164;2023-03-31T09:18:17;956.13;;;873.05;;
73697;SDS011;62004;42.566;23.164;2023-03-31T09:20:44;953.67;;;870.78;;
73697;SDS011;62004;42.566;23.164;2023-03-31T09:25:42;957.58;;;875.70;;
73697;SDS011;62004;42.566;23.164;2023-03-31T09:28:12;960.22;;;877.80;;
73697;SDS011;62004;42.566;23.164;2023-03-31T09:30:38;965.08;;;881.80;;
73697;SDS011;62004;42.566;23.164;2023-03-31T09:33:20;948.40;;;866.47;;
73697;SDS011;62004;42.566;23.164;2023-03-31T09:35:51;950.55;;;869.42;;
73697;SDS011;62004;42.566;23.164;2023-03-31T09:38:16;958.83;;;877.27;;
73697;SDS011;62004;42.566;23.164;2023-03-31T09:40:41;957.20;;;874.40;;
73697;SDS011;62004;42.566;23.164;2023-03-31T09:43:23;964.05;;;881.03;;
73697;SDS011;62004;42.566;23.164;2023-03-31T09:45:49;943.70;;;860.80;;
73697;SDS011;62004;42.566;23.164;2023-03-31T09:48:18;958.13;;;876.35;;
73697;SDS011;62004;42.566;23.164;2023-03-31T09:50:47;951.53;;;869.20;;
73697;SDS011;62004;42.566;23.164;2023-03-31T09:53:20;961.78;;;878.92;;
73697;SDS011;62004;42.566;23.164;2023-03-31T09:55:50;960.03;;;875.70;;
73697;SDS011;62004;42.566;23.164;2023-03-31T09:58:16;949.80;;;867.47;;
73697;SDS011;62004;42.566;23.164;2023-03-31T10:00:42;952.85;;;869.30;;
73697;SDS011;62004;42.566;23.164;2023-03-31T10:03:20;964.88;;;879.80;;
73697;SDS011;62004;42.566;23.164;2023-03-31T10:05:49;958.05;;;876.13;;
73697;SDS011;62004;42.566;23.164;2023-03-31T10:10:43;961.93;;;879.43;;
73697;SDS011;62004;42.566;23.164;2023-03-31T10:13:09;958.50;;;877.05;;
73697;SDS011;62004;42.566;23.164;2023-03-31T10:15:38;972.40;;;888.72;;
73697;SDS011;62004;42.566;23.164;2023-03-31T10:18:03;960.70;;;878.97;;
73697;SDS011;62004;42.566;23.164;2023-03-31T10:20:38;960.47;;;878.17;;
73697;SDS011;62004;42.566;23.164;2023-03-31T10:26:10;949.50;;;868.67;;
73697;SDS011;62004;42.566;23.164;2023-03-31T10:28:38;955.80;;;871.95;;
73697;SDS011;62004;42.566;23.164;2023-03-31T10:31:04;970.35;;;885.55;;
73697;SDS011;62004;42.566;23.164;2023-03-31T10:33:30;964.67;;;878.50;;
73697;SDS011;62004;42.566;23.164;2023-03-31T10:35:59;971.75;;;883.83;;
73697;SDS011;62004;42.566;23.164;2023-03-31T10:38:29;962.67;;;876.67;;
73697;SDS011;62004;42.566;23.164;2023-03-31T10:40:58;964.88;;;878.58;;
73697;SDS011;62004;42.566;23.164;2023-03-31T10:43:42;963.05;;;877.13;;
73697;SDS011;62004;42.566;23.164;2023-03-31T10:46:11;936.50;;;846.05;;
73697;SDS011;62004;42.566;23.164;2023-03-31T10:48:38;975.13;;;884.20;;
73697;SDS011;62004;42.566;23.164;2023-03-31T10:53:45;969.17;;;881.03;;
73697;SDS011;62004;42.566;23.164;2023-03-31T10:56:14;977.95;;;889.15;;
73697;SDS011;62004;42.566;23.164;2023-03-31T11:03:53;982.80;;;892.63;;
73697;SDS011;62004;42.566;23.164;2023-03-31T11:18:57;1013.45;;;917.67;;
73697;SDS011;62004;42.566;23.164;2023-03-31T11:31:39;1004.80;;;909.67;;
73697;SDS011;62004;42.566;23.164;2023-03-31T11:42:12;999.90;;;903.70;;
73697;SDS011;62004;42.566;23.164;2023-03-31T11:44:40;987.47;;;892.20;;
73697;SDS011;62004;42.566;23.164;2023-03-31T11:47:08;979.50;;;885.42;;
73697;SDS011;62004;42.566;23.164;2023-03-31T11:49:40;998.47;;;904.53;;
73697;SDS011;62004;42.566;23.164;2023-03-31T11:52:16;980.78;;;888.92;;
73697;SDS011;62004;42.566;23.164;2023-03-31T11:57:15;991.57;;;895.80;;
73697;SDS011;62004;42.566;23.164;2023-03-31T11:59:42;998.72;;;902.33;;
73697;SDS011;62004;42.566;23.164;2023-03-31T12:04:41;990.50;;;895.60;;
73697;SDS011;62004;42.566;23.164;2023-03-31T12:07:16;1007.67;;;910.40;;
73697;SDS011;62004;42.566;23.164;2023-03-31T12:09:54;996.55;;;899.55;;
73697;SDS011;62004;42.566;23.164;2023-03-31T12:12:29;1030.00;;;930.90;;
73697;SDS011;62004;42.566;23.164;2023-03-31T12:15:02;1000.40;;;905.35;;
73697;SDS011;62004;42.566;23.164;2023-03-31T12:17:29;975.70;;;881.42;;
73697;SDS011;62004;42.566;23.164;2023-03-31T12:19:59;983.30;;;890.85;;
73697;SDS011;62004;42.566;23.164;2023-03-31T12:22:33;991.22;;;900.67;;
73697;SDS011;62004;42.566;23.164;2023-03-31T12:25:00;1009.67;;;914.88;;
73697;SDS011;62004;42.566;23.164;2023-03-31T12:27:30;1003.05;;;909.97;;
73697;SDS011;62004;42.566;23.164;2023-03-31T12:30:02;982.30;;;887.13;;
73697;SDS011;62004;42.566;23.164;2023-03-31T12:32:40;1004.58;;;911.05;;
73697;SDS011;62004;42.566;23.164;2023-03-31T12:37:46;992.67;;;900.35;;
73697;SDS011;62004;42.566;23.164;2023-03-31T12:45:29;981.57;;;891.07;;
73697;SDS011;62004;42.566;23.164;2023-03-31T12:52:58;981.78;;;890.63;;
73697;SDS011;62004;42.566;23.164;2023-03-31T12:55:45;988.92;;;896.65;;
73697;SDS011;62004;42.566;23.164;2023-03-31T13:01:03;984.13;;;890.55;;
73697;SDS011;62004;42.566;23.164;2023-03-31T13:05:58;999.13;;;903.15;;
73697;SDS011;62004;42.566;23.164;2023-03-31T13:11:07;1015.63;;;918.53;;
73697;SDS011;62004;42.566;23.164;2023-03-31T13:13:32;1006.50;;;909.73;;
73697;SDS011;62004;42.566;23.164;2023-03-31T13:15:58;1007.95;;;910.70;;
73697;SDS011;62004;42.566;23.164;2023-03-31T13:18:32;993.55;;;896.75;;
73697;SDS011;62004;42.566;23.164;2023-03-31T13:20:58;1002.28;;;904.20;;
73697;SDS011;62004;42.566;23.164;2023-03-31T13:23:24;1013.35;;;913.60;;
73697;SDS011;62004;42.566;23.164;2023-03-31T13:25:56;1010.08;;;911.30;;
73697;SDS011;62004;42.566;23.164;2023-03-31T13:41:09;1008.00;;;909.67;;
73697;SDS011;62004;42.566;23.164;2023-03-31T14:07:26;1009.23;;;909.63;;
73697;SDS011;62004;42.566;23.164;2023-03-31T14:09:52;1008.95;;;909.30;;
73697;SDS011;62004;42.566;23.164;2023-03-31T14:12:34;1008.63;;;909.25;;
73697;SDS011;62004;42.566;23.164;2023-03-31T14:15:00;1001.05;;;903.63;;
73697;SDS011;62004;42.566;23.164;2023-03-31T14:17:29;993.40;;;894.70;;
73697;SDS011;62004;42.566;23.164;2023-03-31T14:25:15;1003.75;;;903.85;;
73697;SDS011;62004;42.566;23.164;2023-03-31T14:27:50;1006.92;;;906.92;;
73697;SDS011;62004;42.566;23.164;2023-03-31T14:32:55;1000.97;;;902.85;;
73697;SDS011;62004;42.566;23.164;2023-03-31T14:38:10;997.75;;;900.20;;
73697;SDS011;62004;42.566;23.164;2023-03-31T14:40:48;1004.00;;;904.65;;
73697;SDS011;62004;42.566;23.164;2023-03-31T14:43:19;992.45;;;893.92;;
73697;SDS011;62004;42.566;23.164;2023-03-31T14:45:45;1001.25;;;903.78;;
73697;SDS011;62004;42.566;23.164;2023-03-31T14:48:10;999.57;;;900.50;;
73697;SDS011;62004;42.566;23.164;2023-03-31T14:50:44;1012.75;;;912.63;;
73697;SDS011;62004;42.566;23.164;2023-03-31T14:53:13;1004.97;;;907.08;;
73697;SDS011;62004;42.566;23.164;2023-03-31T14:55:40;1000.63;;;903.35;;
73697;SDS011;62004;42.566;23.164;2023-03-31T14:58:05;1000.65;;;903.35;;
73697;SDS011;62004;42.566;23.164;2023-03-31T15:00:32;1010.03;;;909.78;;
73697;SDS011;62004;42.566;23.164;2023-03-31T15:02:58;1009.42;;;911.45;;
73697;SDS011;62004;42.566;23.164;2023-03-31T15:07:50;1011.03;;;912.43;;
73697;SDS011;62004;42.566;23.164;2023-03-31T15:10:17;1007.28;;;910.80;;
73697;SDS011;62004;42.566;23.164;2023-03-31T15:12:44;1002.83;;;906.25;;
73697;SDS011;62004;42.566;23.164;2023-03-31T15:15:11;998.20;;;904.15;;
73697;SDS011;62004;42.566;23.164;2023-03-31T15:17:41;1001.33;;;905.85;;
73697;SDS011;62004;42.566;23.164;2023-03-31T15:22:32;990.55;;;897.15;;
73697;SDS011;62004;42.566;23.164;2023-03-31T15:24:57;986.17;;;894.17;;
73697;SDS011;62004;42.566;23.164;2023-03-31T15:29:57;989.97;;;897.90;;
73697;SDS011;62004;42.566;23.164;2023-03-31T15:32:26;998.55;;;905.70;;
73697;SDS011;62004;42.566;23.164;2023-03-31T15:34:52;996.65;;;903.08;;
73697;SDS011;62004;42.566;23.164;2023-03-31T15:37:22;995.10;;;899.20;;
73697;SDS011;62004;42.566;23.164;2023-03-31T15:39:48;1001.42;;;906.33;;
73697;SDS011;62004;42.566;23.164;2023-03-31T15:42:13;995.15;;;901.17;;
73697;SDS011;62004;42.566;23.164;2023-03-31T15:44:45;992.90;;;900.57;;
73697;SDS011;62004;42.566;23.164;2023-03-31T15:49:49;986.67;;;894.97;;
73697;SDS011;62004;42.566;23.164;2023-03-31T15:52:24;993.42;;;899.90;;
73697;SDS011;62004;42.566;23.164;2023-03-31T15:54:50;990.25;;;899.47;;
73697;SDS011;62004;42.566;23.164;2023-03-31T15:57:15;993.67;;;902.78;;
73697;SDS011;62004;42.566;23.164;2023-03-31T16:02:10;1003.35;;;910.15;;
73697;SDS011;62004;42.566;23.164;2023-03-31T16:04:37;993.08;;;901.85;;
73697;SDS011;62004;42.566;23.164;2023-03-31T16:07:04;992.10;;;902.13;;
73697;SDS011;62004;42.566;23.164;2023-03-31T16:11:59;993.50;;;904.08;;
73697;SDS011;62004;42.566;23.164;2023-03-31T16:14:36;994.88;;;905.05;;
73697;SDS011;62004;42.566;23.164;2023-03-31T16:17:03;995.17;;;904.17;;
73697;SDS011;62004;42.566;23.164;2023-03-31T16:19:32;1002.97;;;910.45;;
73697;SDS011;62004;42.566;23.164;2023-03-31T16:22:02;993.63;;;902.88;;
73697;SDS011;62004;42.566;23.164;2023-03-31T16:24:32;999.35;;;906.75;;
73697;SDS011;62004;42.566;23.164;2023-03-31T16:26:59;990.63;;;901.20;;
73697;SDS011;62004;42.566;23.164;2023-03-31T16:29:24;994.60;;;902.70;;
73697;SDS011;62004;42.566;23.164;2023-03-31T16:31:50;989.60;;;898.63;;
73697;SDS011;62004;42.566;23.164;2023-03-31T16:34:30;984.50;;;894.85;;
73697;SDS011;62004;42.566;23.164;2023-03-31T16:36:55;992.80;;;901.60;;
73697;SDS011;62004;42.566;23.164;2023-03-31T16:39:21;975.60;;;887.03;;
73697;SDS011;62004;42.566;23.164;2023-03-31T16:41:46;981.47;;;892.90;;
73697;SDS011;62004;42.566;23.164;2023-03-31T16:44:11;986.97;;;897.67;;
73697;SDS011;62004;42.566;23.164;2023-03-31T16:46:36;984.57;;;893.93;;
73697;SDS011;62004;42.566;23.164;2023-03-31T16:49:02;974.60;;;887.27;;
73697;SDS011;62004;42.566;23.164;2023-03-31T16:51:27;989.43;;;899.83;;
73697;SDS011;62004;42.566;23.164;2023-03-31T16:53:52;989.45;;;899.05;;
73697;SDS011;62004;42.566;23.164;2023-03-31T16:56:17;981.87;;;893.60;;
73697;SDS011;62004;42.566;23.164;2023-03-31T16:58:43;979.23;;;892.20;;
73697;SDS011;62004;42.566;23.164;2023-03-31T17:01:09;990.88;;;902.97;;